sensor_id;sensor_type;location;lat;lon;timestamp;P1;durP1;ratioP1;P2;durP2;ratioP2
64986;SDS011;67903;52.108;9.358;2023-03-01T00:01:12;12.05;;;9.07;;
64986;SDS011;67903;52.108;9.358;2023-03-01T00:03:41;11.90;;;9.77;;
64986;SDS011;67903;52.108;9.358;2023-03-01T00:06:09;12.88;;;10.20;;
64986;SDS011;67903;52.108;9.358;2023-03-01T00:08:36;12.93;;;9.43;;
64986;SDS011;67903;52.108;9.358;2023-03-01T00:13:41;13.63;;;10.25;;
64986;SDS011;67903;52.108;9.358;2023-03-01T00:16:10;14.93;;;10.60;;
64986;SDS011;67903;52.108;9.358;2023-03-01T00:18:39;13.75;;;10.02;;
64986;SDS011;67903;52.108;9.358;2023-03-01T00:21:06;15.05;;;10.63;;
64986;SDS011;67903;52.108;9.358;2023-03-01T00:23:36;14.05;;;9.98;;
64986;SDS011;67903;52.108;9.358;2023-03-01T00:26:07;11.20;;;9.32;;
64986;SDS011;67903;52.108;9.358;2023-03-01T00:28:38;12.55;;;9.45;;
64986;SDS011;67903;52.108;9.358;2023-03-01T00:31:08;12.05;;;9.60;;
64986;SDS011;67903;52.108;9.358;2023-03-01T00:33:37;12.52;;;9.30;;
64986;SDS011;67903;52.108;9.358;2023-03-01T00:36:04;13.40;;;9.57;;
64986;SDS011;67903;52.108;9.358;2023-03-01T00:38:35;13.95;;;9.15;;
64986;SDS011;67903;52.108;9.358;2023-03-01T00:41:06;14.27;;;10.63;;
64986;SDS011;67903;52.108;9.358;2023-03-01T00:43:34;13.20;;;10.60;;
64986;SDS011;67903;52.108;9.358;2023-03-01T00:46:04;16.33;;;11.18;;
64986;SDS011;67903;52.108;9.358;2023-03-01T00:48:32;13.60;;;10.77;;
64986;SDS011;67903;52.108;9.358;2023-03-01T00:51:07;17.52;;;11.68;;
64986;SDS011;67903;52.108;9.358;2023-03-01T00:53:40;15.75;;;11.07;;
64986;SDS011;67903;52.108;9.358;2023-03-01T00:56:08;14.50;;;11.13;;
64986;SDS011;67903;52.108;9.358;2023-03-01T00:58:37;15.50;;;10.00;;
64986;SDS011;67903;52.108;9.358;2023-03-01T01:01:11;15.55;;;11.05;;
64986;SDS011;67903;52.108;9.358;2023-03-01T01:04:00;13.90;;;11.18;;
64986;SDS011;67903;52.108;9.358;2023-03-01T01:06:31;12.38;;;9.63;;
64986;SDS011;67903;52.108;9.358;2023-03-01T01:08:58;16.13;;;10.65;;
64986;SDS011;67903;52.108;9.358;2023-03-01T01:11:27;13.07;;;10.20;;
64986;SDS011;67903;52.108;9.358;2023-03-01T01:13:55;13.48;;;10.52;;
64986;SDS011;67903;52.108;9.358;2023-03-01T01:16:22;14.38;;;9.77;;
64986;SDS011;67903;52.108;9.358;2023-03-01T01:18:50;11.65;;;9.93;;
64986;SDS011;67903;52.108;9.358;2023-03-01T01:21:19;13.35;;;10.57;;
64986;SDS011;67903;52.108;9.358;2023-03-01T01:23:48;15.40;;;10.05;;
64986;SDS011;67903;52.108;9.358;2023-03-01T01:26:16;12.88;;;10.13;;
64986;SDS011;67903;52.108;9.358;2023-03-01T01:28:45;10.95;;;9.70;;
64986;SDS011;67903;52.108;9.358;2023-03-01T01:31:13;12.93;;;10.43;;
64986;SDS011;67903;52.108;9.358;2023-03-01T01:33:40;12.95;;;9.50;;
64986;SDS011;67903;52.108;9.358;2023-03-01T01:36:07;13.75;;;10.05;;
64986;SDS011;67903;52.108;9.358;2023-03-01T01:38:35;14.90;;;10.15;;
64986;SDS011;67903;52.108;9.358;2023-03-01T01:41:03;14.88;;;10.77;;
64986;SDS011;67903;52.108;9.358;2023-03-01T01:43:36;13.00;;;10.25;;
64986;SDS011;67903;52.108;9.358;2023-03-01T01:46:13;10.88;;;9.40;;
64986;SDS011;67903;52.108;9.358;2023-03-01T01:49:15;15.32;;;9.88;;
64986;SDS011;67903;52.108;9.358;2023-03-01T01:51:44;11.88;;;9.75;;
64986;SDS011;67903;52.108;9.358;2023-03-01T01:54:16;14.15;;;10.55;;
64986;SDS011;67903;52.108;9.358;2023-03-01T01:56:52;14.70;;;10.15;;
64986;SDS011;67903;52.108;9.358;2023-03-01T01:59:26;12.63;;;9.65;;
64986;SDS011;67903;52.108;9.358;2023-03-01T02:01:56;15.23;;;10.48;;
64986;SDS011;67903;52.108;9.358;2023-03-01T02:04:27;13.13;;;10.02;;
64986;SDS011;67903;52.108;9.358;2023-03-01T02:06:58;12.90;;;10.00;;
64986;SDS011;67903;52.108;9.358;2023-03-01T02:09:29;11.48;;;10.27;;
64986;SDS011;67903;52.108;9.358;2023-03-01T02:12:00;16.00;;;10.32;;
64986;SDS011;67903;52.108;9.358;2023-03-01T02:14:28;13.35;;;9.70;;
64986;SDS011;67903;52.108;9.358;2023-03-01T02:16:55;13.38;;;9.82;;
64986;SDS011;67903;52.108;9.358;2023-03-01T02:19:36;11.80;;;9.45;;
64986;SDS011;67903;52.108;9.358;2023-03-01T02:22:15;12.68;;;8.95;;
64986;SDS011;67903;52.108;9.358;2023-03-01T02:25:01;11.93;;;9.68;;
64986;SDS011;67903;52.108;9.358;2023-03-01T02:27:47;13.02;;;9.07;;
64986;SDS011;67903;52.108;9.358;2023-03-01T02:30:25;11.15;;;9.20;;
64986;SDS011;67903;52.108;9.358;2023-03-01T02:32:53;12.73;;;9.02;;
64986;SDS011;67903;52.108;9.358;2023-03-01T02:35:32;12.13;;;9.05;;
64986;SDS011;67903;52.108;9.358;2023-03-01T02:38:02;12.13;;;9.20;;
64986;SDS011;67903;52.108;9.358;2023-03-01T02:40:33;10.10;;;9.02;;
64986;SDS011;67903;52.108;9.358;2023-03-01T02:43:01;11.60;;;9.75;;
64986;SDS011;67903;52.108;9.358;2023-03-01T02:45:32;10.35;;;9.23;;
64986;SDS011;67903;52.108;9.358;2023-03-01T02:47:59;12.75;;;9.55;;
64986;SDS011;67903;52.108;9.358;2023-03-01T02:53:05;11.73;;;8.80;;
64986;SDS011;67903;52.108;9.358;2023-03-01T02:55:39;11.63;;;8.95;;
64986;SDS011;67903;52.108;9.358;2023-03-01T02:58:06;11.27;;;9.02;;
64986;SDS011;67903;52.108;9.358;2023-03-01T03:00:38;12.68;;;9.20;;
64986;SDS011;67903;52.108;9.358;2023-03-01T03:03:15;10.32;;;7.63;;
64986;SDS011;67903;52.108;9.358;2023-03-01T03:05:44;10.48;;;8.23;;
64986;SDS011;67903;52.108;9.358;2023-03-01T03:08:12;8.98;;;8.02;;
64986;SDS011;67903;52.108;9.358;2023-03-01T03:10:39;12.35;;;9.02;;
64986;SDS011;67903;52.108;9.358;2023-03-01T03:13:08;9.85;;;8.32;;
64986;SDS011;67903;52.108;9.358;2023-03-01T03:15:37;9.73;;;7.63;;
64986;SDS011;67903;52.108;9.358;2023-03-01T03:18:06;9.60;;;8.68;;
64986;SDS011;67903;52.108;9.358;2023-03-01T03:20:35;9.70;;;8.10;;
64986;SDS011;67903;52.108;9.358;2023-03-01T03:23:02;10.68;;;7.95;;
64986;SDS011;67903;52.108;9.358;2023-03-01T03:25:29;9.65;;;7.72;;
64986;SDS011;67903;52.108;9.358;2023-03-01T03:27:56;9.05;;;7.65;;
64986;SDS011;67903;52.108;9.358;2023-03-01T03:30:25;12.57;;;8.23;;
64986;SDS011;67903;52.108;9.358;2023-03-01T03:32:57;8.82;;;7.43;;
64986;SDS011;67903;52.108;9.358;2023-03-01T03:35:31;8.65;;;6.90;;
64986;SDS011;67903;52.108;9.358;2023-03-01T03:38:03;8.88;;;7.10;;
64986;SDS011;67903;52.108;9.358;2023-03-01T03:40:34;7.85;;;6.97;;
64986;SDS011;67903;52.108;9.358;2023-03-01T03:43:03;9.00;;;6.70;;
64986;SDS011;67903;52.108;9.358;2023-03-01T03:45:32;9.82;;;7.15;;
64986;SDS011;67903;52.108;9.358;2023-03-01T03:48:00;9.75;;;6.72;;
64986;SDS011;67903;52.108;9.358;2023-03-01T03:50:28;9.02;;;7.20;;
64986;SDS011;67903;52.108;9.358;2023-03-01T03:52:55;9.60;;;7.40;;
64986;SDS011;67903;52.108;9.358;2023-03-01T03:55:21;8.57;;;6.70;;
64986;SDS011;67903;52.108;9.358;2023-03-01T03:57:48;8.07;;;6.68;;
64986;SDS011;67903;52.108;9.358;2023-03-01T04:00:19;10.48;;;7.57;;
64986;SDS011;67903;52.108;9.358;2023-03-01T04:02:47;9.30;;;7.32;;
64986;SDS011;67903;52.108;9.358;2023-03-01T04:05:15;9.45;;;7.13;;
64986;SDS011;67903;52.108;9.358;2023-03-01T04:07:44;8.40;;;7.28;;
64986;SDS011;67903;52.108;9.358;2023-03-01T04:10:12;9.77;;;7.40;;
64986;SDS011;67903;52.108;9.358;2023-03-01T04:12:41;9.73;;;8.23;;
64986;SDS011;67903;52.108;9.358;2023-03-01T04:15:10;10.32;;;8.70;;
64986;SDS011;67903;52.108;9.358;2023-03-01T04:17:44;13.68;;;9.48;;
64986;SDS011;67903;52.108;9.358;2023-03-01T04:20:14;15.75;;;9.85;;
64986;SDS011;67903;52.108;9.358;2023-03-01T04:22:59;12.52;;;9.50;;
64986;SDS011;67903;52.108;9.358;2023-03-01T04:25:38;13.50;;;9.65;;
64986;SDS011;67903;52.108;9.358;2023-03-01T04:28:24;10.63;;;8.68;;
64986;SDS011;67903;52.108;9.358;2023-03-01T04:30:56;12.05;;;9.23;;
64986;SDS011;67903;52.108;9.358;2023-03-01T04:33:24;12.48;;;8.50;;
64986;SDS011;67903;52.108;9.358;2023-03-01T04:35:51;9.30;;;8.02;;
64986;SDS011;67903;52.108;9.358;2023-03-01T04:38:19;11.25;;;8.40;;
64986;SDS011;67903;52.108;9.358;2023-03-01T04:40:47;13.43;;;9.32;;
64986;SDS011;67903;52.108;9.358;2023-03-01T04:43:14;10.75;;;8.35;;
64986;SDS011;67903;52.108;9.358;2023-03-01T04:45:41;12.45;;;9.82;;
64986;SDS011;67903;52.108;9.358;2023-03-01T04:48:08;19.52;;;13.15;;
64986;SDS011;67903;52.108;9.358;2023-03-01T04:50:35;17.00;;;12.40;;
64986;SDS011;67903;52.108;9.358;2023-03-01T04:53:02;20.40;;;13.52;;
64986;SDS011;67903;52.108;9.358;2023-03-01T04:55:29;18.23;;;12.88;;
64986;SDS011;67903;52.108;9.358;2023-03-01T04:57:56;26.75;;;17.75;;
64986;SDS011;67903;52.108;9.358;2023-03-01T05:00:23;13.80;;;11.18;;
64986;SDS011;67903;52.108;9.358;2023-03-01T05:02:51;14.70;;;9.80;;
64986;SDS011;67903;52.108;9.358;2023-03-01T05:05:24;12.45;;;10.15;;
64986;SDS011;67903;52.108;9.358;2023-03-01T05:08:00;12.98;;;9.52;;
64986;SDS011;67903;52.108;9.358;2023-03-01T05:10:32;12.55;;;9.70;;
64986;SDS011;67903;52.108;9.358;2023-03-01T05:13:02;12.77;;;10.35;;
64986;SDS011;67903;52.108;9.358;2023-03-01T05:15:30;11.90;;;8.90;;
64986;SDS011;67903;52.108;9.358;2023-03-01T05:17:58;13.55;;;9.40;;
64986;SDS011;67903;52.108;9.358;2023-03-01T05:20:27;13.25;;;9.52;;
64986;SDS011;67903;52.108;9.358;2023-03-01T05:22:55;14.15;;;10.20;;
64986;SDS011;67903;52.108;9.358;2023-03-01T05:25:24;12.70;;;9.07;;
64986;SDS011;67903;52.108;9.358;2023-03-01T05:27:52;12.43;;;9.00;;
64986;SDS011;67903;52.108;9.358;2023-03-01T05:30:19;13.25;;;9.93;;
64986;SDS011;67903;52.108;9.358;2023-03-01T05:32:47;11.35;;;9.07;;
64986;SDS011;67903;52.108;9.358;2023-03-01T05:35:16;12.93;;;10.38;;
64986;SDS011;67903;52.108;9.358;2023-03-01T05:37:44;13.68;;;9.98;;
64986;SDS011;67903;52.108;9.358;2023-03-01T05:40:14;14.73;;;9.20;;
64986;SDS011;67903;52.108;9.358;2023-03-01T05:42:53;12.85;;;9.38;;
64986;SDS011;67903;52.108;9.358;2023-03-01T05:45:23;13.13;;;9.80;;
64986;SDS011;67903;52.108;9.358;2023-03-01T05:47:51;12.15;;;9.15;;
64986;SDS011;67903;52.108;9.358;2023-03-01T05:50:19;12.27;;;9.73;;
64986;SDS011;67903;52.108;9.358;2023-03-01T05:52:48;11.02;;;9.10;;
64986;SDS011;67903;52.108;9.358;2023-03-01T05:55:17;10.77;;;9.40;;
64986;SDS011;67903;52.108;9.358;2023-03-01T05:57:46;11.60;;;8.63;;
64986;SDS011;67903;52.108;9.358;2023-03-01T06:00:14;11.35;;;9.25;;
64986;SDS011;67903;52.108;9.358;2023-03-01T06:02:41;14.52;;;10.35;;
64986;SDS011;67903;52.108;9.358;2023-03-01T06:05:09;14.65;;;9.63;;
64986;SDS011;67903;52.108;9.358;2023-03-01T06:07:37;19.08;;;10.32;;
64986;SDS011;67903;52.108;9.358;2023-03-01T06:10:04;15.35;;;10.18;;
64986;SDS011;67903;52.108;9.358;2023-03-01T06:12:33;22.08;;;10.95;;
64986;SDS011;67903;52.108;9.358;2023-03-01T06:15:00;21.17;;;11.25;;
64986;SDS011;67903;52.108;9.358;2023-03-01T06:17:32;17.40;;;10.60;;
64986;SDS011;67903;52.108;9.358;2023-03-01T06:20:07;15.52;;;10.25;;
64986;SDS011;67903;52.108;9.358;2023-03-01T06:22:37;13.57;;;9.77;;
64986;SDS011;67903;52.108;9.358;2023-03-01T06:25:04;13.32;;;9.48;;
64986;SDS011;67903;52.108;9.358;2023-03-01T06:27:32;11.88;;;9.30;;
64986;SDS011;67903;52.108;9.358;2023-03-01T06:30:00;11.35;;;8.88;;
64986;SDS011;67903;52.108;9.358;2023-03-01T06:32:27;11.45;;;9.15;;
64986;SDS011;67903;52.108;9.358;2023-03-01T06:34:54;12.40;;;9.85;;
64986;SDS011;67903;52.108;9.358;2023-03-01T06:37:21;13.07;;;9.65;;
64986;SDS011;67903;52.108;9.358;2023-03-01T06:39:48;17.00;;;10.38;;
64986;SDS011;67903;52.108;9.358;2023-03-01T06:42:15;12.70;;;9.50;;
64986;SDS011;67903;52.108;9.358;2023-03-01T06:44:43;17.85;;;11.20;;
64986;SDS011;67903;52.108;9.358;2023-03-01T06:47:10;16.30;;;11.68;;
64986;SDS011;67903;52.108;9.358;2023-03-01T06:49:37;12.50;;;10.48;;
64986;SDS011;67903;52.108;9.358;2023-03-01T06:52:04;13.52;;;11.27;;
64986;SDS011;67903;52.108;9.358;2023-03-01T06:54:31;16.23;;;11.45;;
64986;SDS011;67903;52.108;9.358;2023-03-01T06:56:58;14.90;;;11.95;;
64986;SDS011;67903;52.108;9.358;2023-03-01T06:59:24;14.32;;;11.15;;
64986;SDS011;67903;52.108;9.358;2023-03-01T07:01:51;14.38;;;11.32;;
64986;SDS011;67903;52.108;9.358;2023-03-01T07:04:18;15.82;;;11.25;;
64986;SDS011;67903;52.108;9.358;2023-03-01T07:06:45;18.02;;;13.68;;
64986;SDS011;67903;52.108;9.358;2023-03-01T07:09:11;17.73;;;11.85;;
64986;SDS011;67903;52.108;9.358;2023-03-01T07:11:38;15.30;;;12.32;;
64986;SDS011;67903;52.108;9.358;2023-03-01T07:14:05;19.30;;;13.70;;
64986;SDS011;67903;52.108;9.358;2023-03-01T07:16:33;60.67;;;40.05;;
64986;SDS011;67903;52.108;9.358;2023-03-01T07:19:00;18.05;;;13.23;;
64986;SDS011;67903;52.108;9.358;2023-03-01T07:21:27;17.48;;;11.82;;
64986;SDS011;67903;52.108;9.358;2023-03-01T07:23:54;15.75;;;11.82;;
64986;SDS011;67903;52.108;9.358;2023-03-01T07:26:21;14.63;;;11.00;;
64986;SDS011;67903;52.108;9.358;2023-03-01T07:28:51;14.50;;;10.32;;
64986;SDS011;67903;52.108;9.358;2023-03-01T07:31:17;17.63;;;11.38;;
64986;SDS011;67903;52.108;9.358;2023-03-01T07:33:44;14.93;;;10.77;;
64986;SDS011;67903;52.108;9.358;2023-03-01T07:36:11;15.45;;;11.60;;
64986;SDS011;67903;52.108;9.358;2023-03-01T07:38:38;16.50;;;10.63;;
64986;SDS011;67903;52.108;9.358;2023-03-01T07:41:05;15.32;;;10.45;;
64986;SDS011;67903;52.108;9.358;2023-03-01T07:43:32;14.95;;;10.30;;
64986;SDS011;67903;52.108;9.358;2023-03-01T07:45:59;14.15;;;10.50;;
64986;SDS011;67903;52.108;9.358;2023-03-01T07:48:27;12.85;;;9.93;;
64986;SDS011;67903;52.108;9.358;2023-03-01T07:50:57;13.02;;;9.93;;
64986;SDS011;67903;52.108;9.358;2023-03-01T07:53:27;14.10;;;10.57;;
64986;SDS011;67903;52.108;9.358;2023-03-01T07:56:05;12.88;;;10.15;;
64986;SDS011;67903;52.108;9.358;2023-03-01T07:58:37;11.98;;;10.32;;
64986;SDS011;67903;52.108;9.358;2023-03-01T08:01:06;16.48;;;10.10;;
64986;SDS011;67903;52.108;9.358;2023-03-01T08:03:34;11.73;;;9.85;;
64986;SDS011;67903;52.108;9.358;2023-03-01T08:06:02;14.65;;;10.32;;
64986;SDS011;67903;52.108;9.358;2023-03-01T08:08:31;13.77;;;10.63;;
64986;SDS011;67903;52.108;9.358;2023-03-01T08:10:59;15.43;;;11.60;;
64986;SDS011;67903;52.108;9.358;2023-03-01T08:13:27;15.05;;;10.35;;
64986;SDS011;67903;52.108;9.358;2023-03-01T08:15:54;14.70;;;11.43;;
64986;SDS011;67903;52.108;9.358;2023-03-01T08:18:20;17.45;;;11.27;;
64986;SDS011;67903;52.108;9.358;2023-03-01T08:20:47;18.00;;;12.07;;
64986;SDS011;67903;52.108;9.358;2023-03-01T08:23:14;16.90;;;11.32;;
64986;SDS011;67903;52.108;9.358;2023-03-01T08:25:41;15.68;;;10.32;;
64986;SDS011;67903;52.108;9.358;2023-03-01T08:28:08;13.68;;;10.70;;
64986;SDS011;67903;52.108;9.358;2023-03-01T08:30:35;14.98;;;10.50;;
64986;SDS011;67903;52.108;9.358;2023-03-01T08:33:02;15.95;;;10.75;;
64986;SDS011;67903;52.108;9.358;2023-03-01T08:35:28;14.68;;;10.50;;
64986;SDS011;67903;52.108;9.358;2023-03-01T08:37:55;15.65;;;10.25;;
64986;SDS011;67903;52.108;9.358;2023-03-01T08:40:22;12.65;;;10.45;;
64986;SDS011;67903;52.108;9.358;2023-03-01T08:42:49;12.65;;;10.40;;
64986;SDS011;67903;52.108;9.358;2023-03-01T08:45:15;13.00;;;9.70;;
64986;SDS011;67903;52.108;9.358;2023-03-01T08:47:44;13.45;;;10.20;;
64986;SDS011;67903;52.108;9.358;2023-03-01T08:50:11;12.38;;;10.15;;
64986;SDS011;67903;52.108;9.358;2023-03-01T08:52:38;14.15;;;10.45;;
64986;SDS011;67903;52.108;9.358;2023-03-01T08:55:05;16.92;;;11.32;;
64986;SDS011;67903;52.108;9.358;2023-03-01T08:57:32;13.60;;;10.80;;
64986;SDS011;67903;52.108;9.358;2023-03-01T08:59:59;15.23;;;10.20;;
64986;SDS011;67903;52.108;9.358;2023-03-01T09:02:25;12.68;;;9.65;;
64986;SDS011;67903;52.108;9.358;2023-03-01T09:04:52;14.18;;;10.40;;
64986;SDS011;67903;52.108;9.358;2023-03-01T09:07:20;12.75;;;9.48;;
64986;SDS011;67903;52.108;9.358;2023-03-01T09:09:47;11.82;;;9.65;;
64986;SDS011;67903;52.108;9.358;2023-03-01T09:12:14;12.32;;;9.35;;
64986;SDS011;67903;52.108;9.358;2023-03-01T09:14:41;12.25;;;8.90;;
64986;SDS011;67903;52.108;9.358;2023-03-01T09:17:08;13.77;;;10.10;;
64986;SDS011;67903;52.108;9.358;2023-03-01T09:19:35;12.57;;;9.07;;
64986;SDS011;67903;52.108;9.358;2023-03-01T09:22:02;11.52;;;9.68;;
64986;SDS011;67903;52.108;9.358;2023-03-01T09:24:30;14.75;;;10.88;;
64986;SDS011;67903;52.108;9.358;2023-03-01T09:26:57;13.57;;;9.00;;
64986;SDS011;67903;52.108;9.358;2023-03-01T09:29:24;13.82;;;9.65;;
64986;SDS011;67903;52.108;9.358;2023-03-01T09:31:52;14.00;;;9.25;;
64986;SDS011;67903;52.108;9.358;2023-03-01T09:34:22;15.73;;;9.57;;
64986;SDS011;67903;52.108;9.358;2023-03-01T09:36:50;13.25;;;9.95;;
64986;SDS011;67903;52.108;9.358;2023-03-01T09:39:17;11.13;;;9.23;;
64986;SDS011;67903;52.108;9.358;2023-03-01T09:42:01;13.20;;;9.85;;
64986;SDS011;67903;52.108;9.358;2023-03-01T09:49:48;12.23;;;9.25;;
64986;SDS011;67903;52.108;9.358;2023-03-01T09:55:10;9.70;;;7.82;;
64986;SDS011;67903;52.108;9.358;2023-03-01T09:57:44;11.15;;;7.18;;
64986;SDS011;67903;52.108;9.358;2023-03-01T10:00:33;6.82;;;5.65;;
64986;SDS011;67903;52.108;9.358;2023-03-01T10:03:43;7.85;;;6.03;;
64986;SDS011;67903;52.108;9.358;2023-03-01T10:06:21;7.05;;;5.40;;
64986;SDS011;67903;52.108;9.358;2023-03-01T10:09:13;10.00;;;5.57;;
64986;SDS011;67903;52.108;9.358;2023-03-01T10:11:45;7.47;;;5.15;;
64986;SDS011;67903;52.108;9.358;2023-03-01T10:15:01;5.63;;;4.50;;
64986;SDS011;67903;52.108;9.358;2023-03-01T10:17:19;7.20;;;4.15;;
64986;SDS011;67903;52.108;9.358;2023-03-01T10:22:43;6.57;;;4.25;;
64986;SDS011;67903;52.108;9.358;2023-03-01T10:25:23;6.63;;;4.18;;
64986;SDS011;67903;52.108;9.358;2023-03-01T10:28:16;5.20;;;4.05;;
64986;SDS011;67903;52.108;9.358;2023-03-01T10:30:50;5.57;;;4.28;;
64986;SDS011;67903;52.108;9.358;2023-03-01T10:33:25;5.38;;;3.97;;
64986;SDS011;67903;52.108;9.358;2023-03-01T10:35:55;4.53;;;4.13;;
64986;SDS011;67903;52.108;9.358;2023-03-01T10:38:22;4.95;;;3.80;;
64986;SDS011;67903;52.108;9.358;2023-03-01T10:41:10;4.28;;;3.65;;
64986;SDS011;67903;52.108;9.358;2023-03-01T10:43:43;5.80;;;3.78;;
64986;SDS011;67903;52.108;9.358;2023-03-01T10:51:42;5.90;;;4.20;;
64986;SDS011;67903;52.108;9.358;2023-03-01T10:54:27;4.53;;;3.63;;
64986;SDS011;67903;52.108;9.358;2023-03-01T10:56:58;5.78;;;4.20;;
64986;SDS011;67903;52.108;9.358;2023-03-01T11:02:03;5.13;;;4.20;;
64986;SDS011;67903;52.108;9.358;2023-03-01T11:07:28;7.40;;;4.63;;
64986;SDS011;67903;52.108;9.358;2023-03-01T11:09:56;5.85;;;4.28;;
64986;SDS011;67903;52.108;9.358;2023-03-01T11:12:22;6.75;;;4.97;;
64986;SDS011;67903;52.108;9.358;2023-03-01T11:14:54;6.68;;;4.93;;
64986;SDS011;67903;52.108;9.358;2023-03-01T11:17:23;6.60;;;4.60;;
64986;SDS011;67903;52.108;9.358;2023-03-01T11:22:36;5.68;;;4.93;;
64986;SDS011;67903;52.108;9.358;2023-03-01T11:25:07;5.55;;;4.22;;
64986;SDS011;67903;52.108;9.358;2023-03-01T11:27:40;6.75;;;4.72;;
64986;SDS011;67903;52.108;9.358;2023-03-01T11:30:20;6.25;;;4.18;;
64986;SDS011;67903;52.108;9.358;2023-03-01T11:32:53;5.88;;;4.60;;
64986;SDS011;67903;52.108;9.358;2023-03-01T11:35:31;5.10;;;4.20;;
64986;SDS011;67903;52.108;9.358;2023-03-01T11:43:28;5.65;;;4.45;;
64986;SDS011;67903;52.108;9.358;2023-03-01T11:48:34;5.55;;;4.53;;
64986;SDS011;67903;52.108;9.358;2023-03-01T11:51:26;5.38;;;4.82;;
64986;SDS011;67903;52.108;9.358;2023-03-01T11:56:46;6.57;;;4.88;;
64986;SDS011;67903;52.108;9.358;2023-03-01T12:15:23;6.20;;;5.38;;
64986;SDS011;67903;52.108;9.358;2023-03-01T12:18:17;7.00;;;5.18;;
64986;SDS011;67903;52.108;9.358;2023-03-01T12:21:05;6.45;;;5.07;;
64986;SDS011;67903;52.108;9.358;2023-03-01T12:29:58;6.70;;;4.88;;
64986;SDS011;67903;52.108;9.358;2023-03-01T12:38:45;6.22;;;5.20;;
64986;SDS011;67903;52.108;9.358;2023-03-01T12:43:58;6.75;;;5.13;;
64986;SDS011;67903;52.108;9.358;2023-03-01T12:46:49;6.10;;;5.15;;
64986;SDS011;67903;52.108;9.358;2023-03-01T12:55:37;8.90;;;5.53;;
64986;SDS011;67903;52.108;9.358;2023-03-01T13:00:38;5.57;;;4.80;;
64986;SDS011;67903;52.108;9.358;2023-03-01T13:08:50;7.05;;;6.13;;
64986;SDS011;67903;52.108;9.358;2023-03-01T13:11:22;5.80;;;4.78;;
64986;SDS011;67903;52.108;9.358;2023-03-01T13:13:49;5.78;;;4.85;;
64986;SDS011;67903;52.108;9.358;2023-03-01T13:19:06;6.25;;;4.65;;
64986;SDS011;67903;52.108;9.358;2023-03-01T13:21:42;6.18;;;4.78;;
64986;SDS011;67903;52.108;9.358;2023-03-01T13:37:43;6.00;;;4.45;;
64986;SDS011;67903;52.108;9.358;2023-03-01T13:42:47;5.43;;;4.85;;
64986;SDS011;67903;52.108;9.358;2023-03-01T13:45:38;8.30;;;4.88;;
64986;SDS011;67903;52.108;9.358;2023-03-01T13:48:26;5.65;;;4.57;;
64986;SDS011;67903;52.108;9.358;2023-03-01T13:51:02;6.15;;;4.40;;
64986;SDS011;67903;52.108;9.358;2023-03-01T13:53:35;5.95;;;4.30;;
64986;SDS011;67903;52.108;9.358;2023-03-01T13:56:07;7.20;;;4.85;;
64986;SDS011;67903;52.108;9.358;2023-03-01T13:58:58;4.85;;;4.43;;
64986;SDS011;67903;52.108;9.358;2023-03-01T14:01:28;4.88;;;4.28;;
64986;SDS011;67903;52.108;9.358;2023-03-01T14:03:57;5.13;;;4.55;;
64986;SDS011;67903;52.108;9.358;2023-03-01T14:06:29;6.00;;;4.47;;
64986;SDS011;67903;52.108;9.358;2023-03-01T14:09:31;5.05;;;4.53;;
64986;SDS011;67903;52.108;9.358;2023-03-01T14:14:45;6.80;;;4.72;;
64986;SDS011;67903;52.108;9.358;2023-03-01T14:17:26;4.90;;;4.20;;
64986;SDS011;67903;52.108;9.358;2023-03-01T14:20:23;4.28;;;3.88;;
64986;SDS011;67903;52.108;9.358;2023-03-01T14:22:52;7.75;;;4.90;;
64986;SDS011;67903;52.108;9.358;2023-03-01T14:25:22;8.45;;;5.18;;
64986;SDS011;67903;52.108;9.358;2023-03-01T14:27:55;5.93;;;4.40;;
64986;SDS011;67903;52.108;9.358;2023-03-01T14:30:37;6.03;;;4.60;;
64986;SDS011;67903;52.108;9.358;2023-03-01T14:33:20;4.75;;;3.90;;
64986;SDS011;67903;52.108;9.358;2023-03-01T14:38:41;5.25;;;4.32;;
64986;SDS011;67903;52.108;9.358;2023-03-01T14:41:26;6.65;;;4.57;;
64986;SDS011;67903;52.108;9.358;2023-03-01T14:43:58;5.20;;;4.00;;
64986;SDS011;67903;52.108;9.358;2023-03-01T14:49:01;5.20;;;4.18;;
64986;SDS011;67903;52.108;9.358;2023-03-01T14:51:36;6.00;;;4.28;;
64986;SDS011;67903;52.108;9.358;2023-03-01T14:54:18;5.78;;;4.10;;
64986;SDS011;67903;52.108;9.358;2023-03-01T14:56:52;4.28;;;3.88;;
64986;SDS011;67903;52.108;9.358;2023-03-01T14:59:21;5.97;;;4.57;;
64986;SDS011;67903;52.108;9.358;2023-03-01T15:01:50;5.22;;;4.47;;
64986;SDS011;67903;52.108;9.358;2023-03-01T15:04:19;5.15;;;4.22;;
64986;SDS011;67903;52.108;9.358;2023-03-01T15:06:47;5.13;;;4.05;;
64986;SDS011;67903;52.108;9.358;2023-03-01T15:09:18;4.18;;;3.78;;
64986;SDS011;67903;52.108;9.358;2023-03-01T15:11:45;5.00;;;4.05;;
64986;SDS011;67903;52.108;9.358;2023-03-01T15:14:25;5.75;;;4.07;;
64986;SDS011;67903;52.108;9.358;2023-03-01T15:16:53;5.55;;;4.50;;
64986;SDS011;67903;52.108;9.358;2023-03-01T15:19:21;5.43;;;4.30;;
64986;SDS011;67903;52.108;9.358;2023-03-01T15:21:53;6.50;;;4.40;;
64986;SDS011;67903;52.108;9.358;2023-03-01T15:24:25;6.45;;;4.40;;
64986;SDS011;67903;52.108;9.358;2023-03-01T15:26:57;4.88;;;4.38;;
64986;SDS011;67903;52.108;9.358;2023-03-01T15:29:32;7.05;;;4.57;;
64986;SDS011;67903;52.108;9.358;2023-03-01T15:32:27;6.45;;;4.53;;
64986;SDS011;67903;52.108;9.358;2023-03-01T15:34:53;4.82;;;4.32;;
64986;SDS011;67903;52.108;9.358;2023-03-01T15:37:40;5.00;;;4.25;;
64986;SDS011;67903;52.108;9.358;2023-03-01T15:40:18;5.82;;;4.10;;
64986;SDS011;67903;52.108;9.358;2023-03-01T15:42:58;4.70;;;4.18;;
64986;SDS011;67903;52.108;9.358;2023-03-01T15:45:26;5.20;;;3.67;;
64986;SDS011;67903;52.108;9.358;2023-03-01T15:47:55;5.03;;;4.00;;
64986;SDS011;67903;52.108;9.358;2023-03-01T15:50:29;5.35;;;3.80;;
64986;SDS011;67903;52.108;9.358;2023-03-01T15:52:56;6.65;;;4.45;;
64986;SDS011;67903;52.108;9.358;2023-03-01T15:55:26;5.63;;;4.10;;
64986;SDS011;67903;52.108;9.358;2023-03-01T16:00:41;4.50;;;3.90;;
64986;SDS011;67903;52.108;9.358;2023-03-01T16:03:25;4.82;;;3.90;;
64986;SDS011;67903;52.108;9.358;2023-03-01T16:05:52;5.45;;;4.03;;
64986;SDS011;67903;52.108;9.358;2023-03-01T16:08:19;4.88;;;3.80;;
64986;SDS011;67903;52.108;9.358;2023-03-01T16:10:46;6.50;;;4.47;;
64986;SDS011;67903;52.108;9.358;2023-03-01T16:13:16;6.00;;;4.05;;
64986;SDS011;67903;52.108;9.358;2023-03-01T16:15:43;5.68;;;3.97;;
64986;SDS011;67903;52.108;9.358;2023-03-01T16:18:10;5.53;;;4.10;;
64986;SDS011;67903;52.108;9.358;2023-03-01T16:20:38;6.35;;;3.80;;
64986;SDS011;67903;52.108;9.358;2023-03-01T16:23:07;6.10;;;4.05;;
64986;SDS011;67903;52.108;9.358;2023-03-01T16:25:35;6.47;;;4.28;;
64986;SDS011;67903;52.108;9.358;2023-03-01T16:28:02;4.35;;;3.72;;
64986;SDS011;67903;52.108;9.358;2023-03-01T16:30:35;7.43;;;4.05;;
64986;SDS011;67903;52.108;9.358;2023-03-01T16:33:03;5.97;;;4.07;;
64986;SDS011;67903;52.108;9.358;2023-03-01T16:35:50;6.32;;;3.50;;
64986;SDS011;67903;52.108;9.358;2023-03-01T16:38:17;5.00;;;3.90;;
64986;SDS011;67903;52.108;9.358;2023-03-01T16:40:47;4.10;;;3.70;;
64986;SDS011;67903;52.108;9.358;2023-03-01T16:43:16;9.02;;;4.10;;
64986;SDS011;67903;52.108;9.358;2023-03-01T16:45:43;6.75;;;3.78;;
64986;SDS011;67903;52.108;9.358;2023-03-01T16:48:11;6.65;;;3.53;;
64986;SDS011;67903;52.108;9.358;2023-03-01T16:50:38;6.55;;;4.05;;
64986;SDS011;67903;52.108;9.358;2023-03-01T16:53:05;4.93;;;3.58;;
64986;SDS011;67903;52.108;9.358;2023-03-01T16:55:32;6.75;;;4.40;;